<?xml version='1.0' encoding='UTF-8'?><gpx version="1.1" creator="JPX - https://github.com/jenetics/jpx" xmlns="http://www.topografix.com/GPX/1/1"><trk><trkseg><trkpt lat="51.042020979212076" lon="2.378380035943362"><ele>5.0</ele><time>2026-04-11T09:33:49.003Z</time></trkpt><trkpt lat="51.04198483639516" lon="2.3784836257514077"><ele>5.0</ele><time>2026-04-11T09:33:53.002Z</time></trkpt><trkpt lat="51.04192052938522" lon="2.378402320119062"><ele>5.0</ele><time>2026-04-11T09:34:02.001Z</time></trkpt><trkpt lat="51.04186749597105" lon="2.3782998644238256"><ele>5.0</ele><time>2026-04-11T09:34:05.001Z</time></trkpt><trkpt lat="51.04180039934541" lon="2.3782487546839604"><ele>5.0</ele><time>2026-04-11T09:34:08.001Z</time></trkpt><trkpt lat="51.04172124687476" lon="2.3783011687961064"><ele>5.0</ele><time>2026-04-11T09:34:11.001Z</time></trkpt><trkpt lat="51.04164187359915" lon="2.3783239116903703"><ele>4.833333333333334</ele><time>2026-04-11T09:34:14.001Z</time></trkpt><trkpt lat="51.04156027360797" lon="2.3783301496488263"><ele>4.666666666666667</ele><time>2026-04-11T09:34:18.001Z</time></trkpt><trkpt lat="51.04148311588237" lon="2.3783367674626166"><ele>4.5</ele><time>2026-04-11T09:34:23Z</time></trkpt><trkpt lat="51.0414036491462" lon="2.3783479024844136"><ele>4.333333333333333</ele><time>2026-04-11T09:34:26Z</time></trkpt><trkpt lat="51.041329120062656" lon="2.3783169908694375"><ele>4.166666666666666</ele><time>2026-04-11T09:34:28Z</time></trkpt><trkpt lat="51.04126128955913" lon="2.378332081019954"><ele>4.0</ele><time>2026-04-11T09:34:30Z</time></trkpt><trkpt lat="51.04118365833234" lon="2.3783380033889316"><ele>3.9999999999999996</ele><time>2026-04-11T09:34:32Z</time></trkpt><trkpt lat="51.04110788358096" lon="2.37837897300814"><ele>4.0</ele><time>2026-04-11T09:34:35Z</time></trkpt><trkpt lat="51.04104748553773" lon="2.3782954404046244"><ele>4.0</ele><time>2026-04-11T09:34:40Z</time></trkpt><trkpt lat="51.04097213447937" lon="2.378230118275592"><ele>4.0</ele><time>2026-04-11T09:34:43Z</time></trkpt><trkpt lat="51.040890202680636" lon="2.3783071016779926"><ele>3.9999999999999996</ele><time>2026-04-11T09:34:46Z</time></trkpt><trkpt lat="51.04081359827278" lon="2.3783575067787224"><ele>4.0</ele><time>2026-04-11T09:34:49Z</time></trkpt><trkpt lat="51.040740171286075" lon="2.3783968674588283"><ele>4.166666666666666</ele><time>2026-04-11T09:34:53Z</time></trkpt><trkpt lat="51.040655563095854" lon="2.378383014825349"><ele>4.333333333333333</ele><time>2026-04-11T09:34:56Z</time></trkpt><trkpt lat="51.04058591758907" lon="2.3783916988122584"><ele>4.5</ele><time>2026-04-11T09:34:58Z</time></trkpt><trkpt lat="51.04051753340684" lon="2.3783859157163927"><ele>4.666666666666667</ele><time>2026-04-11T09:35:00Z</time></trkpt><trkpt lat="51.04043571039435" lon="2.378400090557922"><ele>4.833333333333334</ele><time>2026-04-11T09:35:02Z</time></trkpt><trkpt lat="51.04035450234786" lon="2.378400478324059"><ele>5.0</ele><time>2026-04-11T09:35:04Z</time></trkpt><trkpt lat="51.04028366137678" lon="2.3783630916663534"><ele>5.0</ele><time>2026-04-11T09:35:06Z</time></trkpt><trkpt lat="51.04021953002005" lon="2.3783512106682925"><ele>5.0</ele><time>2026-04-11T09:35:08Z</time></trkpt><trkpt lat="51.04014516150424" lon="2.3783307658089434"><ele>5.0</ele><time>2026-04-11T09:35:11Z</time></trkpt><trkpt lat="51.04008028845384" lon="2.378323486121083"><ele>5.0</ele><time>2026-04-11T09:35:14Z</time></trkpt><trkpt lat="51.039998039043404" lon="2.3782822551904435"><ele>5.0</ele><time>2026-04-11T09:35:17Z</time></trkpt><trkpt lat="51.03993185401823" lon="2.3782570531765796"><ele>5.0</ele><time>2026-04-11T09:35:20Z</time></trkpt><trkpt lat="51.039861913957076" lon="2.378232177083066"><ele>5.0</ele><time>2026-04-11T09:35:25Z</time></trkpt><trkpt lat="51.039799589502074" lon="2.3781886488996156"><ele>5.166666666666667</ele><time>2026-04-11T09:35:30Z</time></trkpt><trkpt lat="51.039731372893264" lon="2.378167567541971"><ele>5.333333333333334</ele><time>2026-04-11T09:35:36Z</time></trkpt><trkpt lat="51.039662370286024" lon="2.378117343038153"><ele>5.5</ele><time>2026-04-11T09:35:41Z</time></trkpt><trkpt lat="51.039589968985524" lon="2.3780553045363533"><ele>5.666666666666667</ele><time>2026-04-11T09:35:45Z</time></trkpt><trkpt lat="51.03952973207035" lon="2.378013312143677"><ele>5.833333333333333</ele><time>2026-04-11T09:35:47Z</time></trkpt><trkpt lat="51.039445396321625" lon="2.3779477489006644"><ele>6.0</ele><time>2026-04-11T09:35:50.001Z</time></trkpt><trkpt lat="51.03937961961746" lon="2.3778763724330587"><ele>6.0</ele><time>2026-04-11T09:35:52.001Z</time></trkpt><trkpt lat="51.039316739685624" lon="2.3778025052619842"><ele>6.0</ele><time>2026-04-11T09:35:54.001Z</time></trkpt><trkpt lat="51.039246723686546" lon="2.3777477459166314"><ele>6.0</ele><time>2026-04-11T09:35:56.001Z</time></trkpt><trkpt lat="51.039182418613116" lon="2.377644335692752"><ele>6.0</ele><time>2026-04-11T09:35:59.001Z</time></trkpt><trkpt lat="51.0391107587165" lon="2.3775620661696917"><ele>6.0</ele><time>2026-04-11T09:36:02.001Z</time></trkpt><trkpt lat="51.03905633732335" lon="2.3775018565265715"><ele>6.0</ele><time>2026-04-11T09:36:04Z</time></trkpt><trkpt lat="51.03900857860707" lon="2.377420032322676"><ele>6.199999999999999</ele><time>2026-04-11T09:36:06Z</time></trkpt><trkpt lat="51.03896274835318" lon="2.377320000657482"><ele>6.3999999999999995</ele><time>2026-04-11T09:36:08Z</time></trkpt><trkpt lat="51.03892376522264" lon="2.377194981317194"><ele>6.6</ele><time>2026-04-11T09:36:15Z</time></trkpt><trkpt lat="51.03888754202498" lon="2.377066023004415"><ele>6.8</ele><time>2026-04-11T09:36:17Z</time></trkpt><trkpt lat="51.0388490583614" lon="2.3769152462363645"><ele>7.0</ele><time>2026-04-11T09:36:19Z</time></trkpt><trkpt lat="51.03878640909304" lon="2.3767772818915747"><ele>7.000000000000001</ele><time>2026-04-11T09:36:21Z</time></trkpt><trkpt lat="51.03875366835308" lon="2.376671888457106"><ele>7.0</ele><time>2026-04-11T09:36:23Z</time></trkpt><trkpt lat="51.03871823400407" lon="2.3765749029914685"><ele>7.0</ele><time>2026-04-11T09:36:25Z</time></trkpt><trkpt lat="51.0386828195768" lon="2.376446089859996"><ele>7.0</ele><time>2026-04-11T09:36:27Z</time></trkpt><trkpt lat="51.03864094996702" lon="2.376308770227925"><ele>7.000000000000001</ele><time>2026-04-11T09:36:29Z</time></trkpt><trkpt lat="51.03859981811146" lon="2.3761713989963154"><ele>7.0</ele><time>2026-04-11T09:36:31Z</time></trkpt><trkpt lat="51.038562722115174" lon="2.376041817624017"><ele>6.500000000000001</ele><time>2026-04-11T09:36:33Z</time></trkpt><trkpt lat="51.038523067112436" lon="2.375929368839281"><ele>6.0</ele><time>2026-04-11T09:36:35Z</time></trkpt><trkpt lat="51.038490360778454" lon="2.375807442476711"><ele>5.5</ele><time>2026-04-11T09:36:37Z</time></trkpt><trkpt lat="51.03844949845819" lon="2.3756925266778968"><ele>5.0</ele><time>2026-04-11T09:36:39Z</time></trkpt><trkpt lat="51.03842093427129" lon="2.3755777757779617"><ele>4.5</ele><time>2026-04-11T09:36:41Z</time></trkpt><trkpt lat="51.03839632829338" lon="2.3754576578130258"><ele>4.0</ele><time>2026-04-11T09:36:43Z</time></trkpt><trkpt lat="51.03833589886132" lon="2.3753582043326844"><ele>4.5</ele><time>2026-04-11T09:36:45Z</time></trkpt><trkpt lat="51.03828640083825" lon="2.375250167000631"><ele>5.0</ele><time>2026-04-11T09:36:47Z</time></trkpt><trkpt lat="51.0382357621478" lon="2.3751595934994447"><ele>5.5</ele><time>2026-04-11T09:36:49Z</time></trkpt><trkpt lat="51.038207363024235" lon="2.3750609143894295"><ele>6.0</ele><time>2026-04-11T09:36:51Z</time></trkpt><trkpt lat="51.03814165104173" lon="2.3749707719149664"><ele>6.500000000000001</ele><time>2026-04-11T09:36:54Z</time></trkpt><trkpt lat="51.03808063059911" lon="2.37485469471747"><ele>7.0</ele><time>2026-04-11T09:36:59Z</time></trkpt><trkpt lat="51.03803082249375" lon="2.374782281672435"><ele>7.0</ele><time>2026-04-11T09:37:01Z</time></trkpt><trkpt lat="51.0379686973001" lon="2.374688159571699"><ele>6.999999999999999</ele><time>2026-04-11T09:37:04Z</time></trkpt><trkpt lat="51.03789045905215" lon="2.374561342612538"><ele>6.999999999999999</ele><time>2026-04-11T09:37:06Z</time></trkpt><trkpt lat="51.03782016803378" lon="2.3744280436322147"><ele>7.0</ele><time>2026-04-11T09:37:08Z</time></trkpt><trkpt lat="51.03774598629032" lon="2.374335323820567"><ele>7.0</ele><time>2026-04-11T09:37:10Z</time></trkpt><trkpt lat="51.0376785499373" lon="2.3742330314103888"><ele>7.3999999999999995</ele><time>2026-04-11T09:37:12Z</time></trkpt><trkpt lat="51.03760826125328" lon="2.374127434912829"><ele>7.799999999999999</ele><time>2026-04-11T09:37:14Z</time></trkpt><trkpt lat="51.037533812777596" lon="2.3740338472843194"><ele>8.2</ele><time>2026-04-11T09:37:16Z</time></trkpt><trkpt lat="51.037459270700644" lon="2.373938026438675"><ele>8.6</ele><time>2026-04-11T09:37:18Z</time></trkpt><trkpt lat="51.03739191752509" lon="2.3738357836353763"><ele>9.0</ele><time>2026-04-11T09:37:20Z</time></trkpt><trkpt lat="51.037340053959376" lon="2.3737587165413294"><ele>8.0</ele><time>2026-04-11T09:37:23Z</time></trkpt><trkpt lat="51.03726381563712" lon="2.373681416987402"><ele>7.0</ele><time>2026-04-11T09:37:25Z</time></trkpt><trkpt lat="51.037169354962224" lon="2.373566618226855"><ele>6.0</ele><time>2026-04-11T09:37:26Z</time></trkpt><trkpt lat="51.037094845913465" lon="2.3735022572192497"><ele>5.0</ele><time>2026-04-11T09:37:28Z</time></trkpt><trkpt lat="51.03702110595636" lon="2.3734303736825733"><ele>4.0</ele><time>2026-04-11T09:37:30Z</time></trkpt><trkpt lat="51.03694041072368" lon="2.3733664219622552"><ele>3.9999999999999996</ele><time>2026-04-11T09:37:32Z</time></trkpt><trkpt lat="51.03683588538825" lon="2.3733063395570637"><ele>4.0</ele><time>2026-04-11T09:37:34Z</time></trkpt><trkpt lat="51.03675166458904" lon="2.373235874593364"><ele>4.0</ele><time>2026-04-11T09:37:36Z</time></trkpt><trkpt lat="51.03667875234633" lon="2.3731732296138763"><ele>4.0</ele><time>2026-04-11T09:37:37.999Z</time></trkpt><trkpt lat="51.03661917235535" lon="2.373107271087645"><ele>3.9999999999999996</ele><time>2026-04-11T09:37:39.999Z</time></trkpt><trkpt lat="51.036558153154154" lon="2.3730592550748466"><ele>4.0</ele><time>2026-04-11T09:37:41.999Z</time></trkpt><trkpt lat="51.03649015605467" lon="2.373022668598014"><ele>5.166666666666666</ele><time>2026-04-11T09:37:43.999Z</time></trkpt><trkpt lat="51.03640692660363" lon="2.3729647638314266"><ele>6.333333333333333</ele><time>2026-04-11T09:37:46.999Z</time></trkpt><trkpt lat="51.036322030030405" lon="2.3729192156632513"><ele>7.5</ele><time>2026-04-11T09:37:49.999Z</time></trkpt><trkpt lat="51.03625136325952" lon="2.372881050645084"><ele>8.666666666666666</ele><time>2026-04-11T09:37:52.999Z</time></trkpt><trkpt lat="51.03618058538931" lon="2.3728158785029225"><ele>9.833333333333332</ele><time>2026-04-11T09:37:56Z</time></trkpt><trkpt lat="51.03611171438776" lon="2.3727605418383333"><ele>11.0</ele><time>2026-04-11T09:38:00Z</time></trkpt><trkpt lat="51.036047009254" lon="2.372746643642669"><ele>11.0</ele><time>2026-04-11T09:38:03Z</time></trkpt><trkpt lat="51.03598136468671" lon="2.372698632428693"><ele>11.0</ele><time>2026-04-11T09:38:06Z</time></trkpt><trkpt lat="51.035915511134135" lon="2.3726524410792584"><ele>11.0</ele><time>2026-04-11T09:38:09Z</time></trkpt><trkpt lat="51.03585645498641" lon="2.372579083517429"><ele>11.0</ele><time>2026-04-11T09:38:12Z</time></trkpt><trkpt lat="51.035837045157464" lon="2.3724218451225894"><ele>11.0</ele><time>2026-04-11T09:38:15Z</time></trkpt><trkpt lat="51.03579237869254" lon="2.37234250675694"><ele>11.0</ele><time>2026-04-11T09:38:18Z</time></trkpt><trkpt lat="51.03571285678065" lon="2.372362635110584"><ele>10.0</ele><time>2026-04-11T09:38:21Z</time></trkpt><trkpt lat="51.03562596923202" lon="2.372419567887853"><ele>9.0</ele><time>2026-04-11T09:38:33Z</time></trkpt><trkpt lat="51.03556103882459" lon="2.3723761148526554"><ele>8.0</ele><time>2026-04-11T09:38:54Z</time></trkpt><trkpt lat="51.03550561514428" lon="2.3723218896143208"><ele>7.0</ele><time>2026-04-11T09:38:56Z</time></trkpt><trkpt lat="51.03540560265898" lon="2.3723046768408826"><ele>6.0</ele><time>2026-04-11T09:38:59Z</time></trkpt><trkpt lat="51.035327475200084" lon="2.372313508717797"><ele>5.0</ele><time>2026-04-11T09:39:01Z</time></trkpt><trkpt lat="51.03523965907879" lon="2.3723077628245433"><ele>5.0</ele><time>2026-04-11T09:39:03Z</time></trkpt><trkpt lat="51.03515786884848" lon="2.3722756280277624"><ele>5.0</ele><time>2026-04-11T09:39:05Z</time></trkpt><trkpt lat="51.03507472518456" lon="2.372251279107339"><ele>5.0</ele><time>2026-04-11T09:39:07Z</time></trkpt><trkpt lat="51.03499317662256" lon="2.3722302880161616"><ele>5.0</ele><time>2026-04-11T09:39:09Z</time></trkpt><trkpt lat="51.03492844852188" lon="2.372213083023264"><ele>5.0</ele><time>2026-04-11T09:39:12Z</time></trkpt><trkpt lat="51.03483182147616" lon="2.372191522106903"><ele>5.0</ele><time>2026-04-11T09:39:15Z</time></trkpt><trkpt lat="51.034773025891845" lon="2.3721436456394818"><ele>5.666666666666667</ele><time>2026-04-11T09:39:17Z</time></trkpt><trkpt lat="51.03470602633237" lon="2.372160298836001"><ele>6.333333333333334</ele><time>2026-04-11T09:39:19Z</time></trkpt><trkpt lat="51.0346190905682" lon="2.3721302837987865"><ele>7.0</ele><time>2026-04-11T09:39:21.999Z</time></trkpt><trkpt lat="51.0345279027792" lon="2.3721022229031252"><ele>7.666666666666667</ele><time>2026-04-11T09:39:23.999Z</time></trkpt><trkpt lat="51.03443189991807" lon="2.3720654427986663"><ele>8.333333333333334</ele><time>2026-04-11T09:39:25.999Z</time></trkpt><trkpt lat="51.03434243389679" lon="2.3720549712800683"><ele>9.0</ele><time>2026-04-11T09:39:27.999Z</time></trkpt><trkpt lat="51.034255737759395" lon="2.3720142022525947"><ele>9.0</ele><time>2026-04-11T09:39:29.999Z</time></trkpt><trkpt lat="51.03417689183615" lon="2.371940890591004"><ele>9.0</ele><time>2026-04-11T09:39:31.999Z</time></trkpt><trkpt lat="51.03409517971297" lon="2.371872919918704"><ele>9.0</ele><time>2026-04-11T09:39:33.999Z</time></trkpt><trkpt lat="51.034018064016436" lon="2.371874449159371"><ele>9.0</ele><time>2026-04-11T09:39:35.999Z</time></trkpt><trkpt lat="51.03393429237081" lon="2.37180789883527"><ele>9.0</ele><time>2026-04-11T09:39:37.999Z</time></trkpt><trkpt lat="51.03384983881656" lon="2.371775241100007"><ele>9.0</ele><time>2026-04-11T09:39:39.999Z</time></trkpt><trkpt lat="51.03377840565125" lon="2.371744640370144"><ele>8.666666666666666</ele><time>2026-04-11T09:39:41.999Z</time></trkpt><trkpt lat="51.033696215019" lon="2.3716995821036453"><ele>8.333333333333334</ele><time>2026-04-11T09:39:43.999Z</time></trkpt><trkpt lat="51.033634638567605" lon="2.3716452156096226"><ele>8.0</ele><time>2026-04-11T09:39:46.999Z</time></trkpt><trkpt lat="51.033556919126376" lon="2.3716187934581794"><ele>7.666666666666667</ele><time>2026-04-11T09:39:49.999Z</time></trkpt><trkpt lat="51.03347268234503" lon="2.3715818907900514"><ele>7.333333333333334</ele><time>2026-04-11T09:39:52.999Z</time></trkpt><trkpt lat="51.03340612230029" lon="2.371495502209321"><ele>7.0</ele><time>2026-04-11T09:39:55.999Z</time></trkpt><trkpt lat="51.03334742800862" lon="2.3714532652347478"><ele>6.8</ele><time>2026-04-11T09:39:58.999Z</time></trkpt><trkpt lat="51.03325186625144" lon="2.371403487046244"><ele>6.6</ele><time>2026-04-11T09:40:00.999Z</time></trkpt><trkpt lat="51.03319160868851" lon="2.3713697464738903"><ele>6.3999999999999995</ele><time>2026-04-11T09:40:03Z</time></trkpt><trkpt lat="51.03308111823401" lon="2.371404465057087"><ele>6.199999999999999</ele><time>2026-04-11T09:40:05Z</time></trkpt><trkpt lat="51.0329736857524" lon="2.371428419445335"><ele>6.0</ele><time>2026-04-11T09:40:07Z</time></trkpt><trkpt lat="51.032869290621555" lon="2.371425004288557"><ele>6.0</ele><time>2026-04-11T09:40:09Z</time></trkpt><trkpt lat="51.0327741113936" lon="2.3714340814708605"><ele>6.0</ele><time>2026-04-11T09:40:11Z</time></trkpt><trkpt lat="51.03270536036013" lon="2.3714881954513114"><ele>6.0</ele><time>2026-04-11T09:40:13Z</time></trkpt><trkpt lat="51.03264936194638" lon="2.3715339863647613"><ele>6.0</ele><time>2026-04-11T09:40:15Z</time></trkpt><trkpt lat="51.03257381821776" lon="2.3715828776401375"><ele>6.0</ele><time>2026-04-11T09:40:17Z</time></trkpt><trkpt lat="51.032494224962235" lon="2.371573950126982"><ele>6.0</ele><time>2026-04-11T09:40:19Z</time></trkpt><trkpt lat="51.0324194667096" lon="2.3715811077206976"><ele>6.166666666666667</ele><time>2026-04-11T09:40:21Z</time></trkpt><trkpt lat="51.03233488403795" lon="2.37156306698696"><ele>6.333333333333334</ele><time>2026-04-11T09:40:24Z</time></trkpt><trkpt lat="51.032251146034874" lon="2.37155846130658"><ele>6.5</ele><time>2026-04-11T09:40:27Z</time></trkpt><trkpt lat="51.03217339529179" lon="2.3715320585718658"><ele>6.666666666666667</ele><time>2026-04-11T09:40:30Z</time></trkpt><trkpt lat="51.03211027216643" lon="2.3715341624652777"><ele>6.833333333333334</ele><time>2026-04-11T09:40:34Z</time></trkpt><trkpt lat="51.032045126497955" lon="2.3715369621822346"><ele>7.0</ele><time>2026-04-11T09:40:43Z</time></trkpt><trkpt lat="51.03194586277344" lon="2.371539804412423"><ele>7.0</ele><time>2026-04-11T09:40:46Z</time></trkpt><trkpt lat="51.031872681443765" lon="2.3716405894649104"><ele>6.999999999999999</ele><time>2026-04-11T09:40:48Z</time></trkpt><trkpt lat="51.0318141813101" lon="2.3717442724946016"><ele>6.999999999999999</ele><time>2026-04-11T09:40:50Z</time></trkpt><trkpt lat="51.031716640672826" lon="2.371744681695307"><ele>7.0</ele><time>2026-04-11T09:40:52Z</time></trkpt><trkpt lat="51.0316516291711" lon="2.3717540036553193"><ele>7.0</ele><time>2026-04-11T09:40:54Z</time></trkpt><trkpt lat="51.03150048405413" lon="2.371807786787326"><ele>6.833333333333334</ele><time>2026-04-11T09:40:57Z</time></trkpt><trkpt lat="51.03141188193169" lon="2.3718379006577814"><ele>6.666666666666667</ele><time>2026-04-11T09:40:59Z</time></trkpt><trkpt lat="51.03133954948537" lon="2.3718442727829174"><ele>6.5</ele><time>2026-04-11T09:41:01Z</time></trkpt><trkpt lat="51.031273848402506" lon="2.371851130910391"><ele>6.333333333333334</ele><time>2026-04-11T09:41:05Z</time></trkpt><trkpt lat="51.03120083200718" lon="2.3717736721812535"><ele>6.166666666666667</ele><time>2026-04-11T09:41:08Z</time></trkpt><trkpt lat="51.031141498383136" lon="2.3716903294146534"><ele>6.0</ele><time>2026-04-11T09:41:11Z</time></trkpt><trkpt lat="51.03110730908644" lon="2.371584586499145"><ele>6.0</ele><time>2026-04-11T09:41:14Z</time></trkpt><trkpt lat="51.03108958876855" lon="2.371470863589396"><ele>6.0</ele><time>2026-04-11T09:41:17Z</time></trkpt><trkpt lat="51.03107172820312" lon="2.3713535855252825"><ele>6.0</ele><time>2026-04-11T09:41:19.999Z</time></trkpt><trkpt lat="51.031026244259074" lon="2.3712691972824382"><ele>6.0</ele><time>2026-04-11T09:41:21.999Z</time></trkpt><trkpt lat="51.03094789887428" lon="2.371187567744805"><ele>6.0</ele><time>2026-04-11T09:41:23.999Z</time></trkpt><trkpt lat="51.03090795723099" lon="2.3710934509309"><ele>6.0</ele><time>2026-04-11T09:41:27.999Z</time></trkpt><trkpt lat="51.03082107854179" lon="2.3711118700387868"><ele>6.0</ele><time>2026-04-11T09:41:31.999Z</time></trkpt><trkpt lat="51.030763582711714" lon="2.371160967509638"><ele>6.0</ele><time>2026-04-11T09:41:34.999Z</time></trkpt><trkpt lat="51.03072716165542" lon="2.371075591753452"><ele>6.0</ele><time>2026-04-11T09:41:38.999Z</time></trkpt><trkpt lat="51.0306593903882" lon="2.3711033138318593"><ele>6.0</ele><time>2026-04-11T09:41:44.999Z</time></trkpt><trkpt lat="51.03054822331066" lon="2.371123199492588"><ele>6.0</ele><time>2026-04-11T09:41:46.999Z</time></trkpt><trkpt lat="51.03043475998635" lon="2.3711399950939307"><ele>6.0</ele><time>2026-04-11T09:41:48.999Z</time></trkpt><trkpt lat="51.03034916212728" lon="2.3711127205112255"><ele>6.0</ele><time>2026-04-11T09:41:50.999Z</time></trkpt><trkpt lat="51.03023619198908" lon="2.371058348886872"><ele>6.0</ele><time>2026-04-11T09:41:53.999Z</time></trkpt><trkpt lat="51.030195185316664" lon="2.370940776713511"><ele>6.0</ele><time>2026-04-11T09:41:55.999Z</time></trkpt><trkpt lat="51.03012945413921" lon="2.3708794372852107"><ele>6.0</ele><time>2026-04-11T09:41:57.999Z</time></trkpt><trkpt lat="51.030062370658975" lon="2.370807652236439"><ele>6.0</ele><time>2026-04-11T09:42:01.999Z</time></trkpt><trkpt lat="51.029833144491256" lon="2.3709523205949794"><ele>5.666666666666667</ele><time>2026-04-11T09:42:03.999Z</time></trkpt><trkpt lat="51.0298101875888" lon="2.371056829085974"><ele>5.333333333333333</ele><time>2026-04-11T09:42:04.999Z</time></trkpt><trkpt lat="51.02977513414563" lon="2.370936980814495"><ele>5.0</ele><time>2026-04-11T09:42:06.999Z</time></trkpt><trkpt lat="51.029737349630416" lon="2.3708023308970105"><ele>4.666666666666666</ele><time>2026-04-11T09:42:09Z</time></trkpt><trkpt lat="51.02970440409789" lon="2.3706665158081157"><ele>4.333333333333333</ele><time>2026-04-11T09:42:11Z</time></trkpt><trkpt lat="51.029671562456" lon="2.3705359917356725"><ele>4.0</ele><time>2026-04-11T09:42:13Z</time></trkpt><trkpt lat="51.02964186180014" lon="2.3704315026442484"><ele>3.833333333333333</ele><time>2026-04-11T09:42:15Z</time></trkpt><trkpt lat="51.02961580794278" lon="2.370305274422365"><ele>3.6666666666666665</ele><time>2026-04-11T09:42:17Z</time></trkpt><trkpt lat="51.02960004545165" lon="2.3701691143803405"><ele>3.5</ele><time>2026-04-11T09:42:19Z</time></trkpt><trkpt lat="51.029573350525254" lon="2.3700391629614517"><ele>3.333333333333333</ele><time>2026-04-11T09:42:21Z</time></trkpt><trkpt lat="51.029546897565574" lon="2.3699329185143396"><ele>3.1666666666666665</ele><time>2026-04-11T09:42:23Z</time></trkpt><trkpt lat="51.029524481513036" lon="2.3698193981675493"><ele>3.0</ele><time>2026-04-11T09:42:25Z</time></trkpt><trkpt lat="51.02947809795523" lon="2.3696813203619262"><ele>3.0</ele><time>2026-04-11T09:42:28Z</time></trkpt><trkpt lat="51.02942890916" lon="2.3695883154820723"><ele>3.0</ele><time>2026-04-11T09:42:31Z</time></trkpt><trkpt lat="51.02943961861155" lon="2.3694754780085563"><ele>3.0</ele><time>2026-04-11T09:42:33Z</time></trkpt><trkpt lat="51.02937813861378" lon="2.3694082668336516"><ele>3.0</ele><time>2026-04-11T09:42:36Z</time></trkpt><trkpt lat="51.02929824979057" lon="2.3693155721913253"><ele>3.0</ele><time>2026-04-11T09:42:40Z</time></trkpt><trkpt lat="51.02926881046331" lon="2.3690104287377265"><ele>3.0</ele><time>2026-04-11T09:42:42Z</time></trkpt><trkpt lat="51.029258582300976" lon="2.3688719188521823"><ele>3.0</ele><time>2026-04-11T09:42:43Z</time></trkpt><trkpt lat="51.02922941722157" lon="2.3687731723612204"><ele>3.0</ele><time>2026-04-11T09:42:44Z</time></trkpt><trkpt lat="51.02920785747106" lon="2.368628459735216"><ele>3.0</ele><time>2026-04-11T09:42:46Z</time></trkpt><trkpt lat="51.029205908884116" lon="2.3684957918241016"><ele>3.0</ele><time>2026-04-11T09:42:48Z</time></trkpt><trkpt lat="51.02916389841389" lon="2.3683782662240587"><ele>3.0</ele><time>2026-04-11T09:42:50Z</time></trkpt><trkpt lat="51.02920690787409" lon="2.368231215548547"><ele>3.0</ele><time>2026-04-11T09:42:52Z</time></trkpt><trkpt lat="51.029219133242385" lon="2.3680847974782844"><ele>3.0</ele><time>2026-04-11T09:42:54Z</time></trkpt><trkpt lat="51.029232875338664" lon="2.3679780171109184"><ele>3.0</ele><time>2026-04-11T09:42:57Z</time></trkpt><trkpt lat="51.029235954384696" lon="2.3678402079848877"><ele>3.0</ele><time>2026-04-11T09:43:00Z</time></trkpt><trkpt lat="51.02919612669539" lon="2.367715797942257"><ele>3.0</ele><time>2026-04-11T09:43:03Z</time></trkpt><trkpt lat="51.029143640214" lon="2.367644204385475"><ele>3.0</ele><time>2026-04-11T09:43:05Z</time></trkpt><trkpt lat="51.029105108535965" lon="2.367517619891549"><ele>3.0</ele><time>2026-04-11T09:43:08Z</time></trkpt><trkpt lat="51.029094896995225" lon="2.367405180028735"><ele>3.0</ele><time>2026-04-11T09:43:11Z</time></trkpt><trkpt lat="51.029067441760986" lon="2.367271352279044"><ele>3.0</ele><time>2026-04-11T09:43:14Z</time></trkpt><trkpt lat="51.02907222061332" lon="2.3671330206349137"><ele>3.0</ele><time>2026-04-11T09:43:16.999Z</time></trkpt><trkpt lat="51.02907429292904" lon="2.3670279182415084"><ele>3.0</ele><time>2026-04-11T09:43:18.999Z</time></trkpt><trkpt lat="51.02907065445549" lon="2.366899493721853"><ele>3.0</ele><time>2026-04-11T09:43:21.999Z</time></trkpt><trkpt lat="51.0290216869717" lon="2.3667551344992237"><ele>3.0</ele><time>2026-04-11T09:43:24.999Z</time></trkpt><trkpt lat="51.028980918831714" lon="2.366653633222877"><ele>3.0</ele><time>2026-04-11T09:43:26.999Z</time></trkpt><trkpt lat="51.02895543888944" lon="2.366534569766406"><ele>3.0</ele><time>2026-04-11T09:43:29.999Z</time></trkpt><trkpt lat="51.028911549748855" lon="2.3664023457008767"><ele>3.0</ele><time>2026-04-11T09:43:32.999Z</time></trkpt><trkpt lat="51.02888134582985" lon="2.3663096069590996"><ele>3.0</ele><time>2026-04-11T09:43:34.999Z</time></trkpt><trkpt lat="51.02884119741741" lon="2.3661653343265137"><ele>3.0</ele><time>2026-04-11T09:43:37.999Z</time></trkpt><trkpt lat="51.02881146472985" lon="2.3660729136303322"><ele>2.6666666666666665</ele><time>2026-04-11T09:43:39.999Z</time></trkpt><trkpt lat="51.02877880519399" lon="2.3659441024933825"><ele>2.3333333333333335</ele><time>2026-04-11T09:43:42.999Z</time></trkpt><trkpt lat="51.0287595303925" lon="2.3658177444923902"><ele>2.0</ele><time>2026-04-11T09:43:45.999Z</time></trkpt><trkpt lat="51.02872342834883" lon="2.365706289315918"><ele>1.6666666666666665</ele><time>2026-04-11T09:43:48.999Z</time></trkpt><trkpt lat="51.0286941947925" lon="2.3655935024836543"><ele>1.3333333333333333</ele><time>2026-04-11T09:43:52.999Z</time></trkpt><trkpt lat="51.02867304022094" lon="2.3654973794625174"><ele>1.0</ele><time>2026-04-11T09:43:56.999Z</time></trkpt><trkpt lat="51.028634878862604" lon="2.365397861974371"><ele>0.9999999999999999</ele><time>2026-04-11T09:44:00.999Z</time></trkpt><trkpt lat="51.02859490473799" lon="2.3652798463479656"><ele>1.0</ele><time>2026-04-11T09:44:04.999Z</time></trkpt><trkpt lat="51.02855979647114" lon="2.365186773650047"><ele>1.0</ele><time>2026-04-11T09:44:07.999Z</time></trkpt><trkpt lat="51.028522479265" lon="2.365092696386612"><ele>1.0</ele><time>2026-04-11T09:44:10.999Z</time></trkpt><trkpt lat="51.02850990559442" lon="2.364976288269926"><ele>0.9999999999999999</ele><time>2026-04-11T09:44:14Z</time></trkpt><trkpt lat="51.02846659316276" lon="2.3648516120007965"><ele>1.0</ele><time>2026-04-11T09:44:17Z</time></trkpt><trkpt lat="51.02843393214771" lon="2.3647532958779776"><ele>1.1666666666666665</ele><time>2026-04-11T09:44:19Z</time></trkpt><trkpt lat="51.02839957370714" lon="2.3646518409750312"><ele>1.3333333333333333</ele><time>2026-04-11T09:44:21Z</time></trkpt><trkpt lat="51.02835805001006" lon="2.3645419113988377"><ele>1.5</ele><time>2026-04-11T09:44:23Z</time></trkpt><trkpt lat="51.02831058074566" lon="2.364425448744108"><ele>1.6666666666666665</ele><time>2026-04-11T09:44:25Z</time></trkpt><trkpt lat="51.02826853253597" lon="2.364300154055437"><ele>1.8333333333333333</ele><time>2026-04-11T09:44:27Z</time></trkpt><trkpt lat="51.028227355896924" lon="2.364201032422491"><ele>2.0</ele><time>2026-04-11T09:44:29Z</time></trkpt><trkpt lat="51.0282004195355" lon="2.3640951400396664"><ele>2.1666666666666665</ele><time>2026-04-11T09:44:32Z</time></trkpt><trkpt lat="51.02813195856293" lon="2.3640132326148455"><ele>2.333333333333333</ele><time>2026-04-11T09:44:33Z</time></trkpt><trkpt lat="51.02808093294313" lon="2.3638492392389505"><ele>2.5</ele><time>2026-04-11T09:44:35Z</time></trkpt><trkpt lat="51.028045750984006" lon="2.36372814087764"><ele>2.6666666666666665</ele><time>2026-04-11T09:44:38Z</time></trkpt><trkpt lat="51.02801638598217" lon="2.363618508806105"><ele>2.8333333333333335</ele><time>2026-04-11T09:44:40Z</time></trkpt><trkpt lat="51.027981626317775" lon="2.3635088746872737"><ele>3.0</ele><time>2026-04-11T09:44:42Z</time></trkpt><trkpt lat="51.02795429753739" lon="2.3633853341323627"><ele>3.1666666666666665</ele><time>2026-04-11T09:44:44Z</time></trkpt><trkpt lat="51.02792031759135" lon="2.363271108819357"><ele>3.333333333333333</ele><time>2026-04-11T09:44:46Z</time></trkpt><trkpt lat="51.02788180940087" lon="2.3631535084461603"><ele>3.5</ele><time>2026-04-11T09:44:48Z</time></trkpt><trkpt lat="51.02784776146764" lon="2.3630359092365514"><ele>3.6666666666666665</ele><time>2026-04-11T09:44:50Z</time></trkpt><trkpt lat="51.02780984533842" lon="2.3629203729644788"><ele>3.833333333333333</ele><time>2026-04-11T09:44:52Z</time></trkpt><trkpt lat="51.027777252929276" lon="2.3627866409814366"><ele>4.0</ele><time>2026-04-11T09:44:54Z</time></trkpt><trkpt lat="51.02774518390514" lon="2.362655026711338"><ele>3.9999999999999996</ele><time>2026-04-11T09:44:56Z</time></trkpt><trkpt lat="51.02771195033509" lon="2.3625224420302535"><ele>4.0</ele><time>2026-04-11T09:44:58Z</time></trkpt><trkpt lat="51.02768426984659" lon="2.3623897858820713"><ele>4.0</ele><time>2026-04-11T09:45:00Z</time></trkpt><trkpt lat="51.02766306472576" lon="2.362272295496826"><ele>4.0</ele><time>2026-04-11T09:45:02Z</time></trkpt><trkpt lat="51.02763524521732" lon="2.3621557599981475"><ele>3.9999999999999996</ele><time>2026-04-11T09:45:04Z</time></trkpt><trkpt lat="51.02760517552896" lon="2.3620464369075265"><ele>4.0</ele><time>2026-04-11T09:45:06Z</time></trkpt><trkpt lat="51.027581751130086" lon="2.3619346683145372"><ele>3.833333333333333</ele><time>2026-04-11T09:45:08Z</time></trkpt><trkpt lat="51.02756232388165" lon="2.361804825179165"><ele>3.6666666666666665</ele><time>2026-04-11T09:45:10Z</time></trkpt><trkpt lat="51.02752862605377" lon="2.361664056229279"><ele>3.5</ele><time>2026-04-11T09:45:12Z</time></trkpt><trkpt lat="51.027480045740035" lon="2.361531107009078"><ele>3.333333333333333</ele><time>2026-04-11T09:45:14Z</time></trkpt><trkpt lat="51.027453538576985" lon="2.361403804899868"><ele>3.1666666666666665</ele><time>2026-04-11T09:45:15.999Z</time></trkpt><trkpt lat="51.02742288115447" lon="2.361287224037288"><ele>3.0</ele><time>2026-04-11T09:45:17.999Z</time></trkpt><trkpt lat="51.02739787620776" lon="2.361180370472157"><ele>2.8333333333333335</ele><time>2026-04-11T09:45:19.999Z</time></trkpt><trkpt lat="51.02735785279264" lon="2.361085193987157"><ele>2.6666666666666665</ele><time>2026-04-11T09:45:21.999Z</time></trkpt><trkpt lat="51.02735433980627" lon="2.3609513366858317"><ele>2.5</ele><time>2026-04-11T09:45:23.999Z</time></trkpt><trkpt lat="51.02732881243075" lon="2.3608274201942154"><ele>2.333333333333333</ele><time>2026-04-11T09:45:25.999Z</time></trkpt><trkpt lat="51.02730750642083" lon="2.3606863654205834"><ele>2.1666666666666665</ele><time>2026-04-11T09:45:27.999Z</time></trkpt><trkpt lat="51.02728280135588" lon="2.36055774941003"><ele>2.0</ele><time>2026-04-11T09:45:29.999Z</time></trkpt><trkpt lat="51.027254120844404" lon="2.3604517583189666"><ele>1.9999999999999998</ele><time>2026-04-11T09:45:31.999Z</time></trkpt><trkpt lat="51.027238633317936" lon="2.360342332543103"><ele>2.0</ele><time>2026-04-11T09:45:33.999Z</time></trkpt><trkpt lat="51.02721506729666" lon="2.36020139343497"><ele>2.0</ele><time>2026-04-11T09:45:36.999Z</time></trkpt><trkpt lat="51.02726784482857" lon="2.3600754965101327"><ele>2.0</ele><time>2026-04-11T09:45:39.999Z</time></trkpt><trkpt lat="51.027248825615004" lon="2.3599703261257217"><ele>1.9999999999999998</ele><time>2026-04-11T09:45:42.999Z</time></trkpt><trkpt lat="51.0272200788223" lon="2.3598767637328852"><ele>2.0</ele><time>2026-04-11T09:45:44.999Z</time></trkpt><trkpt lat="51.02717174299955" lon="2.359790654416446"><ele>2.5</ele><time>2026-04-11T09:45:46.999Z</time></trkpt><trkpt lat="51.02714035193227" lon="2.3596870880699337"><ele>3.0</ele><time>2026-04-11T09:45:48.999Z</time></trkpt><trkpt lat="51.02717697567447" lon="2.359599439996586"><ele>3.5</ele><time>2026-04-11T09:45:51.999Z</time></trkpt><trkpt lat="51.027173615252494" lon="2.3594641390791664"><ele>4.0</ele><time>2026-04-11T09:45:53.999Z</time></trkpt><trkpt lat="51.02719321092164" lon="2.359317146672311"><ele>4.5</ele><time>2026-04-11T09:45:55.999Z</time></trkpt><trkpt lat="51.02712327250058" lon="2.359252472849075"><ele>5.0</ele><time>2026-04-11T09:45:57.999Z</time></trkpt><trkpt lat="51.02714464381944" lon="2.359133635082391"><ele>5.0</ele><time>2026-04-11T09:46:01.999Z</time></trkpt><trkpt lat="51.027135923835026" lon="2.358999811978392"><ele>5.0</ele><time>2026-04-11T09:46:04.999Z</time></trkpt><trkpt lat="51.027105572698545" lon="2.3588781158428413"><ele>5.0</ele><time>2026-04-11T09:46:07.999Z</time></trkpt><trkpt lat="51.027095978723764" lon="2.3587434653939265"><ele>5.0</ele><time>2026-04-11T09:46:09.999Z</time></trkpt><trkpt lat="51.027051618526954" lon="2.3586430426683878"><ele>5.0</ele><time>2026-04-11T09:46:11.999Z</time></trkpt><trkpt lat="51.027037891673416" lon="2.358544944254357"><ele>5.0</ele><time>2026-04-11T09:46:13.999Z</time></trkpt><trkpt lat="51.02700490420048" lon="2.358402196101821"><ele>5.0</ele><time>2026-04-11T09:46:16.999Z</time></trkpt><trkpt lat="51.026987788236895" lon="2.3583031497798044"><ele>5.0</ele><time>2026-04-11T09:46:18.999Z</time></trkpt><trkpt lat="51.02695525509654" lon="2.358207028411816"><ele>5.0</ele><time>2026-04-11T09:46:21Z</time></trkpt><trkpt lat="51.02692421354748" lon="2.358084558783208"><ele>5.0</ele><time>2026-04-11T09:46:24Z</time></trkpt><trkpt lat="51.02690794777009" lon="2.357969771578507"><ele>5.0</ele><time>2026-04-11T09:46:27Z</time></trkpt><trkpt lat="51.0269238680421" lon="2.357831003415843"><ele>5.0</ele><time>2026-04-11T09:46:29Z</time></trkpt><trkpt lat="51.02684601638037" lon="2.3577140322929755"><ele>5.0</ele><time>2026-04-11T09:46:31Z</time></trkpt><trkpt lat="51.02684383226313" lon="2.35757207397214"><ele>5.0</ele><time>2026-04-11T09:46:33Z</time></trkpt><trkpt lat="51.02681397639071" lon="2.3574577976219975"><ele>5.0</ele><time>2026-04-11T09:46:35Z</time></trkpt><trkpt lat="51.02676963188677" lon="2.357321533300148"><ele>5.0</ele><time>2026-04-11T09:46:37Z</time></trkpt><trkpt lat="51.0267425430931" lon="2.3572021534083043"><ele>5.0</ele><time>2026-04-11T09:46:39Z</time></trkpt><trkpt lat="51.02675231995565" lon="2.357027485578311"><ele>5.0</ele><time>2026-04-11T09:46:41Z</time></trkpt><trkpt lat="51.02673230474868" lon="2.356911844224034"><ele>5.0</ele><time>2026-04-11T09:46:43Z</time></trkpt><trkpt lat="51.026690422430434" lon="2.356786371649834"><ele>5.0</ele><time>2026-04-11T09:46:46Z</time></trkpt><trkpt lat="51.026641107249645" lon="2.3567051256643854"><ele>5.0</ele><time>2026-04-11T09:46:48Z</time></trkpt><trkpt lat="51.02662083315391" lon="2.3565545054026167"><ele>5.0</ele><time>2026-04-11T09:46:51Z</time></trkpt><trkpt lat="51.02659534729332" lon="2.3564604669802263"><ele>5.0</ele><time>2026-04-11T09:46:53Z</time></trkpt><trkpt lat="51.02659419201657" lon="2.3563420665235673"><ele>4.666666666666667</ele><time>2026-04-11T09:46:56Z</time></trkpt><trkpt lat="51.02654657135905" lon="2.3562276354107916"><ele>4.333333333333334</ele><time>2026-04-11T09:46:59Z</time></trkpt><trkpt lat="51.026504746863935" lon="2.356097996979828"><ele>4.0</ele><time>2026-04-11T09:47:01Z</time></trkpt><trkpt lat="51.02647987574914" lon="2.355988852081025"><ele>3.666666666666667</ele><time>2026-04-11T09:47:03Z</time></trkpt><trkpt lat="51.02645991462107" lon="2.3558568279722434"><ele>3.3333333333333335</ele><time>2026-04-11T09:47:05Z</time></trkpt><trkpt lat="51.026439842415364" lon="2.3557442565985127"><ele>3.0</ele><time>2026-04-11T09:47:08Z</time></trkpt><trkpt lat="51.02638536588459" lon="2.35568370124796"><ele>3.0</ele><time>2026-04-11T09:47:09Z</time></trkpt><trkpt lat="51.026380564053404" lon="2.3555754442653822"><ele>3.0</ele><time>2026-04-11T09:47:11Z</time></trkpt><trkpt lat="51.02640529185045" lon="2.3554131394838556"><ele>3.0</ele><time>2026-04-11T09:47:13Z</time></trkpt><trkpt lat="51.02634651842986" lon="2.3553010382289927"><ele>3.0</ele><time>2026-04-11T09:47:15Z</time></trkpt><trkpt lat="51.026309246641716" lon="2.355172583176768"><ele>3.0</ele><time>2026-04-11T09:47:17Z</time></trkpt><trkpt lat="51.026272693218274" lon="2.3550798929461925"><ele>3.0</ele><time>2026-04-11T09:47:19Z</time></trkpt><trkpt lat="51.02623957022534" lon="2.3549630059388424"><ele>2.8333333333333335</ele><time>2026-04-11T09:47:21Z</time></trkpt><trkpt lat="51.02621099967715" lon="2.3548381631713386"><ele>2.6666666666666665</ele><time>2026-04-11T09:47:23Z</time></trkpt><trkpt lat="51.026185739271796" lon="2.3547250240490176"><ele>2.5</ele><time>2026-04-11T09:47:25Z</time></trkpt><trkpt lat="51.026166500650774" lon="2.3545972408812528"><ele>2.333333333333333</ele><time>2026-04-11T09:47:27Z</time></trkpt><trkpt lat="51.02613647150754" lon="2.3544797711236947"><ele>2.1666666666666665</ele><time>2026-04-11T09:47:29Z</time></trkpt><trkpt lat="51.02614121157851" lon="2.3543670642407943"><ele>2.0</ele><time>2026-04-11T09:47:31Z</time></trkpt><trkpt lat="51.02610273206779" lon="2.3542590598018993"><ele>1.9999999999999998</ele><time>2026-04-11T09:47:33Z</time></trkpt><trkpt lat="51.02607632257879" lon="2.354166996040199"><ele>2.0</ele><time>2026-04-11T09:47:35Z</time></trkpt><trkpt lat="51.02604242322337" lon="2.3540404545143536"><ele>2.0</ele><time>2026-04-11T09:47:38Z</time></trkpt><trkpt lat="51.026025394941165" lon="2.3539344467107752"><ele>2.0</ele><time>2026-04-11T09:47:39.999Z</time></trkpt><trkpt lat="51.02600168819646" lon="2.3538083686220723"><ele>1.9999999999999998</ele><time>2026-04-11T09:47:41.999Z</time></trkpt><trkpt lat="51.02597809552222" lon="2.353676039549911"><ele>2.0</ele><time>2026-04-11T09:47:43.999Z</time></trkpt><trkpt lat="51.025939118905505" lon="2.353563931232513"><ele>1.6666666666666665</ele><time>2026-04-11T09:47:45.999Z</time></trkpt><trkpt lat="51.02591560736834" lon="2.353448874668167"><ele>1.3333333333333333</ele><time>2026-04-11T09:47:47.999Z</time></trkpt><trkpt lat="51.025884297683" lon="2.3533348750342427"><ele>1.0</ele><time>2026-04-11T09:47:49.999Z</time></trkpt><trkpt lat="51.02587265332237" lon="2.353221447453044"><ele>0.6666666666666666</ele><time>2026-04-11T09:47:51.999Z</time></trkpt><trkpt lat="51.02590129926538" lon="2.353076455682726"><ele>0.3333333333333333</ele><time>2026-04-11T09:47:54.999Z</time></trkpt><trkpt lat="51.02589598687355" lon="2.3529745547741348"><ele>0.0</ele><time>2026-04-11T09:47:56.999Z</time></trkpt><trkpt lat="51.025926420979694" lon="2.3528809884056425"><ele>0.0</ele><time>2026-04-11T09:48:00.999Z</time></trkpt><trkpt lat="51.025966590639506" lon="2.3527696709891717"><ele>0.0</ele><time>2026-04-11T09:48:04.999Z</time></trkpt><trkpt lat="51.02599675103196" lon="2.352650902784763"><ele>0.0</ele><time>2026-04-11T09:48:07.999Z</time></trkpt><trkpt lat="51.02601398188618" lon="2.3525402383564966"><ele>0.0</ele><time>2026-04-11T09:48:09.999Z</time></trkpt><trkpt lat="51.02601226229171" lon="2.352420364682202"><ele>0.0</ele><time>2026-04-11T09:48:12.999Z</time></trkpt><trkpt lat="51.02602995157518" lon="2.3523223420139674"><ele>0.0</ele><time>2026-04-11T09:48:14.999Z</time></trkpt><trkpt lat="51.026178576734466" lon="2.3522721165470992"><ele>0.2857142857142857</ele><time>2026-04-11T09:48:19.999Z</time></trkpt><trkpt lat="51.02617375150307" lon="2.3521556679328404"><ele>0.5714285714285714</ele><time>2026-04-11T09:48:21.999Z</time></trkpt><trkpt lat="51.02619049989323" lon="2.352049890791808"><ele>0.8571428571428571</ele><time>2026-04-11T09:48:26Z</time></trkpt><trkpt lat="51.02623909145667" lon="2.351933233956637"><ele>1.1428571428571428</ele><time>2026-04-11T09:49:21Z</time></trkpt><trkpt lat="51.02623706707456" lon="2.3518184909484763"><ele>1.4285714285714284</ele><time>2026-04-11T09:49:26Z</time></trkpt><trkpt lat="51.02619758357226" lon="2.3517318446209705"><ele>1.7142857142857142</ele><time>2026-04-11T09:49:29Z</time></trkpt><trkpt lat="51.02613331088074" lon="2.3517119437397804"><ele>2.0</ele><time>2026-04-11T09:49:33Z</time></trkpt><trkpt lat="51.02610846044287" lon="2.3515667450141784"><ele>1.9999999999999998</ele><time>2026-04-11T09:49:36Z</time></trkpt><trkpt lat="51.02608533876249" lon="2.3514611460707684"><ele>2.0</ele><time>2026-04-11T09:49:38Z</time></trkpt><trkpt lat="51.02606597543889" lon="2.3513371027031242"><ele>2.0</ele><time>2026-04-11T09:49:40Z</time></trkpt><trkpt lat="51.02604653690713" lon="2.3512174736188043"><ele>2.0</ele><time>2026-04-11T09:49:42Z</time></trkpt><trkpt lat="51.025972295343564" lon="2.351153287814598"><ele>1.9999999999999998</ele><time>2026-04-11T09:49:47.999Z</time></trkpt><trkpt lat="51.025841572374894" lon="2.35116834592784"><ele>2.0</ele><time>2026-04-11T09:49:49.999Z</time></trkpt><trkpt lat="51.02576396774825" lon="2.351204745144287"><ele>3.0</ele><time>2026-04-11T09:49:51.999Z</time></trkpt></trkseg></trk></gpx>